BTK6606 WAWW-WALL
Flight info
| Callsign | BTK6606 |
|---|---|
| Flight time | 1h 28m |
| Altitude | 39000 |
| Route | LEKEX W54 MKS W37 BPN |
| Aircraft | B738/M-SDFGHIRWY/EB2 |
Departure
| Time | 2026-04-25 03:37 |
|---|---|
| Airport | Haluoleo Airport (WAWW) |
Arrival
| Time | 2026-04-25 05:05 |
|---|---|
| Airport | Sultan Aji Muhammad Sulaiman Sepinggan International Airport (WALL) |
| Time | Latitude | Longitude | Altitude | Speed | Heading |
|---|---|---|---|---|---|
| 2026-04-25 03:26 | -4.07784 | 122.41780 | 170 ft | 0 kts | 349° |
| 2026-04-25 03:28 | -4.07794 | 122.41782 | 170 ft | 3 kts | 347° |
| 2026-04-25 03:28 | -4.07813 | 122.41787 | 168 ft | 3 kts | 338° |
| 2026-04-25 03:28 | -4.07831 | 122.41796 | 168 ft | 3 kts | 321° |
| 2026-04-25 03:28 | -4.07844 | 122.41809 | 167 ft | 3 kts | 279° |
| 2026-04-25 03:29 | -4.07844 | 122.41820 | 167 ft | 1 kts | 259° |
| 2026-04-25 03:29 | -4.07844 | 122.41822 | 167 ft | 0 kts | 259° |
| 2026-04-25 03:32 | -4.07846 | 122.41811 | 167 ft | 4 kts | 259° |
| 2026-04-25 03:32 | -4.07855 | 122.41762 | 168 ft | 10 kts | 259° |
| 2026-04-25 03:32 | -4.07888 | 122.41697 | 168 ft | 11 kts | 197° |
| 2026-04-25 03:32 | -4.07977 | 122.41702 | 167 ft | 15 kts | 169° |
| 2026-04-25 03:33 | -4.08097 | 122.41725 | 167 ft | 19 kts | 169° |
| 2026-04-25 03:33 | -4.08178 | 122.41733 | 166 ft | 3 kts | 204° |
| 2026-04-25 03:33 | -4.08201 | 122.41708 | 167 ft | 7 kts | 240° |
| 2026-04-25 03:33 | -4.08221 | 122.41641 | 166 ft | 13 kts | 253° |
| 2026-04-25 03:34 | -4.08240 | 122.41533 | 166 ft | 18 kts | 263° |
| 2026-04-25 03:34 | -4.08263 | 122.41389 | 166 ft | 23 kts | 258° |
| 2026-04-25 03:34 | -4.08292 | 122.41221 | 167 ft | 26 kts | 257° |
| 2026-04-25 03:34 | -4.08322 | 122.41060 | 168 ft | 24 kts | 260° |
| 2026-04-25 03:35 | -4.08356 | 122.40946 | 169 ft | 2 kts | 216° |
| 2026-04-25 03:35 | -4.08361 | 122.40938 | 169 ft | 3 kts | 243° |
| 2026-04-25 03:35 | -4.08373 | 122.40908 | 169 ft | 1 kts | 252° |
| 2026-04-25 03:35 | -4.08379 | 122.40887 | 169 ft | 0 kts | 258° |
| 2026-04-25 03:36 | -4.08377 | 122.40878 | 169 ft | 1 kts | 300° |
| 2026-04-25 03:36 | -4.08363 | 122.40871 | 170 ft | 5 kts | 337° |
| 2026-04-25 03:36 | -4.08348 | 122.40878 | 167 ft | 0 kts | 36° |
| 2026-04-25 03:36 | -4.08346 | 122.40884 | 167 ft | 2 kts | 63° |
| 2026-04-25 03:37 | -4.08320 | 122.41009 | 168 ft | 62 kts | 81° |
| 2026-04-25 03:37 | -4.08175 | 122.41808 | 166 ft | 158 kts | 81° |
| 2026-04-25 03:37 | -4.07967 | 122.43083 | 489 ft | 203 kts | 78° |
| 2026-04-25 03:37 | -4.07775 | 122.44530 | 1402 ft | 214 kts | 88° |
| 2026-04-25 03:38 | -4.08097 | 122.45963 | 2740 ft | 212 kts | 120° |
| 2026-04-25 03:38 | -4.09211 | 122.46886 | 4103 ft | 212 kts | 162° |
| 2026-04-25 03:38 | -4.10699 | 122.46802 | 5180 ft | 225 kts | 206° |
| 2026-04-25 03:38 | -4.11769 | 122.45691 | 6242 ft | 231 kts | 249° |
| 2026-04-25 03:39 | -4.11896 | 122.44102 | 7305 ft | 232 kts | 277° |
| 2026-04-25 03:39 | -4.11676 | 122.42442 | 8214 ft | 247 kts | 277° |
| 2026-04-25 03:39 | -4.11490 | 122.40682 | 9163 ft | 260 kts | 275° |
| 2026-04-25 03:39 | -4.11425 | 122.38854 | 10083 ft | 273 kts | 266° |
| 2026-04-25 03:40 | -4.11799 | 122.36909 | 10725 ft | 296 kts | 253° |
| 2026-04-25 03:40 | -4.12478 | 122.34867 | 11279 ft | 320 kts | 250° |
| 2026-04-25 03:40 | -4.13258 | 122.32672 | 11785 ft | 345 kts | 250° |
| 2026-04-25 03:40 | -4.14042 | 122.30353 | 12433 ft | 361 kts | 252° |
| 2026-04-25 03:41 | -4.14813 | 122.27937 | 13434 ft | 366 kts | 252° |
| 2026-04-25 03:41 | -4.15560 | 122.25507 | 14348 ft | 370 kts | 253° |
| 2026-04-25 03:41 | -4.16311 | 122.23026 | 15240 ft | 375 kts | 253° |
| 2026-04-25 03:41 | -4.17072 | 122.20496 | 16115 ft | 380 kts | 253° |
| 2026-04-25 03:42 | -4.17843 | 122.17935 | 16982 ft | 386 kts | 253° |
| 2026-04-25 03:42 | -4.18625 | 122.15341 | 17980 ft | 390 kts | 253° |
| 2026-04-25 03:42 | -4.19408 | 122.12743 | 18828 ft | 396 kts | 253° |
| 2026-04-25 03:42 | -4.20211 | 122.10080 | 19658 ft | 402 kts | 253° |
| 2026-04-25 03:43 | -4.21025 | 122.07376 | 20474 ft | 407 kts | 253° |
| 2026-04-25 03:43 | -4.21849 | 122.04640 | 21273 ft | 413 kts | 253° |
| 2026-04-25 03:43 | -4.22685 | 122.01865 | 22025 ft | 418 kts | 253° |
| 2026-04-25 03:43 | -4.23520 | 121.99091 | 22749 ft | 424 kts | 253° |
| 2026-04-25 03:44 | -4.24376 | 121.96248 | 23437 ft | 429 kts | 253° |
| 2026-04-25 03:44 | -4.25248 | 121.93351 | 24028 ft | 434 kts | 253° |
| 2026-04-25 03:44 | -4.26116 | 121.90467 | 24559 ft | 439 kts | 253° |
| 2026-04-25 03:44 | -4.27051 | 121.87495 | 25102 ft | 444 kts | 251° |
| 2026-04-25 03:45 | -4.28013 | 121.84586 | 25618 ft | 447 kts | 251° |
| 2026-04-25 03:45 | -4.29006 | 121.81613 | 26098 ft | 450 kts | 251° |
| 2026-04-25 03:45 | -4.30001 | 121.78624 | 26575 ft | 454 kts | 251° |
| 2026-04-25 03:45 | -4.30996 | 121.75615 | 27028 ft | 457 kts | 251° |
| 2026-04-25 03:46 | -4.31998 | 121.72570 | 27479 ft | 460 kts | 251° |
| 2026-04-25 03:46 | -4.32989 | 121.69549 | 27914 ft | 464 kts | 251° |
| 2026-04-25 03:46 | -4.34000 | 121.66467 | 28350 ft | 467 kts | 251° |
| 2026-04-25 03:46 | -4.35020 | 121.63354 | 28751 ft | 470 kts | 251° |
| 2026-04-25 03:47 | -4.36047 | 121.60223 | 29156 ft | 474 kts | 251° |
| 2026-04-25 03:47 | -4.37070 | 121.57103 | 29536 ft | 477 kts | 251° |
| 2026-04-25 03:47 | -4.38112 | 121.53925 | 29845 ft | 483 kts | 251° |
| 2026-04-25 03:47 | -4.39181 | 121.50667 | 29909 ft | 493 kts | 251° |
| 2026-04-25 03:48 | -4.40251 | 121.47403 | 29907 ft | 504 kts | 251° |
| 2026-04-25 03:48 | -4.41349 | 121.44054 | 29905 ft | 511 kts | 252° |
| 2026-04-25 03:48 | -4.43588 | 121.37221 | 29905 ft | 519 kts | 252° |
| 2026-04-25 03:49 | -4.45856 | 121.30297 | 29906 ft | 522 kts | 252° |
| 2026-04-25 03:49 | -4.48120 | 121.23384 | 29900 ft | 523 kts | 252° |
| 2026-04-25 03:50 | -4.49232 | 121.19987 | 29899 ft | 499 kts | 252° |
| 2026-04-25 03:50 | -4.50277 | 121.16795 | 29940 ft | 476 kts | 252° |
| 2026-04-25 03:50 | -4.51308 | 121.13643 | 29645 ft | 481 kts | 252° |
| 2026-04-25 03:50 | -4.52363 | 121.10418 | 29755 ft | 490 kts | 252° |
| 2026-04-25 03:51 | -4.53431 | 121.07156 | 30010 ft | 495 kts | 252° |
| 2026-04-25 03:51 | -4.54499 | 121.03891 | 30231 ft | 500 kts | 252° |
| 2026-04-25 03:51 | -4.55594 | 121.00542 | 30463 ft | 504 kts | 252° |
| 2026-04-25 03:51 | -4.56678 | 120.97228 | 30685 ft | 506 kts | 251° |
| 2026-04-25 03:52 | -4.57785 | 120.93842 | 30915 ft | 508 kts | 251° |
| 2026-04-25 03:52 | -4.58892 | 120.90457 | 31176 ft | 509 kts | 251° |
| 2026-04-25 03:52 | -4.59970 | 120.87156 | 31891 ft | 497 kts | 251° |
| 2026-04-25 03:52 | -4.61038 | 120.83885 | 32789 ft | 488 kts | 251° |
| 2026-04-25 03:53 | -4.62091 | 120.80660 | 33338 ft | 486 kts | 251° |
| 2026-04-25 03:53 | -4.63144 | 120.77437 | 33802 ft | 485 kts | 251° |
| 2026-04-25 03:53 | -4.64194 | 120.74226 | 34214 ft | 484 kts | 251° |
| 2026-04-25 03:53 | -4.65228 | 120.71060 | 34620 ft | 483 kts | 251° |
| 2026-04-25 03:54 | -4.66273 | 120.67859 | 35027 ft | 482 kts | 251° |
| 2026-04-25 03:54 | -4.67319 | 120.64655 | 35421 ft | 482 kts | 251° |
| 2026-04-25 03:54 | -4.68363 | 120.61457 | 35768 ft | 483 kts | 251° |
| 2026-04-25 03:54 | -4.69415 | 120.58235 | 35890 ft | 489 kts | 251° |
| 2026-04-25 03:55 | -4.71553 | 120.51682 | 35903 ft | 503 kts | 251° |
| 2026-04-25 03:55 | -4.73702 | 120.45090 | 35903 ft | 483 kts | 251° |
| 2026-04-25 03:56 | -4.75744 | 120.38822 | 35907 ft | 468 kts | 251° |
| 2026-04-25 03:56 | -4.77745 | 120.32685 | 35907 ft | 456 kts | 251° |
| 2026-04-25 03:57 | -4.79706 | 120.26668 | 35911 ft | 462 kts | 251° |
| 2026-04-25 03:57 | -4.81743 | 120.20417 | 35919 ft | 482 kts | 251° |
| 2026-04-25 03:58 | -4.83856 | 120.13929 | 35921 ft | 499 kts | 251° |
| 2026-04-25 03:58 | -4.86034 | 120.07236 | 35917 ft | 509 kts | 251° |
| 2026-04-25 03:59 | -4.88244 | 120.00442 | 35923 ft | 514 kts | 251° |
| 2026-04-25 03:59 | -4.90410 | 119.93781 | 35924 ft | 486 kts | 251° |
| 2026-04-25 04:00 | -4.91440 | 119.90610 | 35919 ft | 470 kts | 251° |
| 2026-04-25 04:00 | -4.92455 | 119.87488 | 35915 ft | 474 kts | 251° |
| 2026-04-25 04:00 | -4.94509 | 119.81172 | 35909 ft | 479 kts | 251° |
| 2026-04-25 04:01 | -4.96564 | 119.74847 | 35899 ft | 478 kts | 251° |
| 2026-04-25 04:01 | -4.98634 | 119.68473 | 35902 ft | 479 kts | 252° |
| 2026-04-25 04:02 | -4.99370 | 119.65229 | 35895 ft | 478 kts | 264° |
| 2026-04-25 04:02 | -4.99446 | 119.61923 | 35896 ft | 478 kts | 276° |
| 2026-04-25 04:02 | -4.98855 | 119.58647 | 35894 ft | 476 kts | 288° |
| 2026-04-25 04:02 | -4.97620 | 119.55572 | 35896 ft | 474 kts | 300° |
| 2026-04-25 04:03 | -4.95802 | 119.52834 | 35897 ft | 471 kts | 312° |
| 2026-04-25 04:03 | -4.93481 | 119.50540 | 35891 ft | 467 kts | 323° |
| 2026-04-25 04:03 | -4.88365 | 119.46545 | 35897 ft | 468 kts | 324° |
| 2026-04-25 04:04 | -4.83260 | 119.42492 | 35874 ft | 469 kts | 323° |
| 2026-04-25 04:04 | -4.79032 | 119.39072 | 35899 ft | 469 kts | 323° |
| 2026-04-25 04:05 | -4.73131 | 119.34279 | 35899 ft | 469 kts | 323° |
| 2026-04-25 04:05 | -4.68911 | 119.30851 | 35904 ft | 469 kts | 323° |
| 2026-04-25 04:06 | -4.63829 | 119.26725 | 35904 ft | 469 kts | 323° |
| 2026-04-25 04:06 | -4.58750 | 119.22601 | 35905 ft | 469 kts | 323° |
| 2026-04-25 04:07 | -4.53703 | 119.18505 | 35896 ft | 469 kts | 323° |
| 2026-04-25 04:07 | -4.48617 | 119.14379 | 35892 ft | 469 kts | 323° |
| 2026-04-25 04:08 | -4.43543 | 119.10263 | 35896 ft | 469 kts | 323° |
| 2026-04-25 04:08 | -4.38473 | 119.06151 | 35899 ft | 469 kts | 323° |
| 2026-04-25 04:09 | -4.33429 | 119.02061 | 35895 ft | 469 kts | 323° |
| 2026-04-25 04:09 | -4.28354 | 118.97948 | 35895 ft | 469 kts | 323° |
| 2026-04-25 04:10 | -4.23275 | 118.93832 | 35894 ft | 468 kts | 323° |
| 2026-04-25 04:10 | -4.18204 | 118.89723 | 35893 ft | 468 kts | 323° |
| 2026-04-25 04:11 | -4.10626 | 118.83584 | 35895 ft | 468 kts | 323° |
| 2026-04-25 04:12 | -4.05565 | 118.79484 | 35896 ft | 468 kts | 323° |
| 2026-04-25 04:12 | -4.00490 | 118.75374 | 35896 ft | 468 kts | 323° |
| 2026-04-25 04:13 | -3.95415 | 118.71264 | 35895 ft | 468 kts | 323° |
| 2026-04-25 04:13 | -3.90375 | 118.67183 | 35898 ft | 468 kts | 323° |
| 2026-04-25 04:14 | -3.85287 | 118.63064 | 35896 ft | 468 kts | 323° |
| 2026-04-25 04:14 | -3.80216 | 118.58960 | 35898 ft | 468 kts | 323° |
| 2026-04-25 04:15 | -3.75154 | 118.54863 | 35901 ft | 468 kts | 323° |
| 2026-04-25 04:15 | -3.70110 | 118.50782 | 35903 ft | 468 kts | 323° |
| 2026-04-25 04:16 | -3.65026 | 118.46668 | 35899 ft | 468 kts | 323° |
| 2026-04-25 04:16 | -3.60006 | 118.42606 | 35900 ft | 465 kts | 323° |
| 2026-04-25 04:17 | -3.54938 | 118.38509 | 35897 ft | 468 kts | 323° |
| 2026-04-25 04:17 | -3.49907 | 118.34441 | 35899 ft | 467 kts | 323° |
| 2026-04-25 04:18 | -3.44832 | 118.30337 | 35897 ft | 467 kts | 323° |
| 2026-04-25 04:18 | -3.39774 | 118.26247 | 35897 ft | 467 kts | 323° |
| 2026-04-25 04:19 | -3.34754 | 118.22188 | 35898 ft | 467 kts | 323° |
| 2026-04-25 04:19 | -3.29684 | 118.18091 | 35897 ft | 467 kts | 323° |
| 2026-04-25 04:20 | -3.24647 | 118.14020 | 35897 ft | 467 kts | 323° |
| 2026-04-25 04:20 | -3.19593 | 118.09936 | 35896 ft | 467 kts | 323° |
| 2026-04-25 04:21 | -3.14567 | 118.05874 | 35896 ft | 466 kts | 323° |
| 2026-04-25 04:21 | -3.09508 | 118.01788 | 35895 ft | 466 kts | 323° |
| 2026-04-25 04:22 | -3.04459 | 117.97710 | 35897 ft | 466 kts | 323° |
| 2026-04-25 04:22 | -2.99419 | 117.93685 | 35897 ft | 465 kts | 326° |
| 2026-04-25 04:23 | -2.93943 | 117.90389 | 35659 ft | 447 kts | 337° |
| 2026-04-25 04:23 | -2.91193 | 117.89107 | 35421 ft | 435 kts | 338° |
| 2026-04-25 04:23 | -2.88464 | 117.87827 | 35020 ft | 429 kts | 338° |
| 2026-04-25 04:23 | -2.85764 | 117.86555 | 34530 ft | 426 kts | 338° |
| 2026-04-25 04:24 | -2.83082 | 117.85290 | 34031 ft | 423 kts | 338° |
| 2026-04-25 04:24 | -2.80460 | 117.84054 | 33567 ft | 419 kts | 338° |
| 2026-04-25 04:24 | -2.77836 | 117.82818 | 33112 ft | 414 kts | 338° |
| 2026-04-25 04:24 | -2.75229 | 117.81590 | 32641 ft | 410 kts | 337° |
| 2026-04-25 04:25 | -2.72684 | 117.80391 | 32176 ft | 406 kts | 337° |
| 2026-04-25 04:25 | -2.70130 | 117.79189 | 31589 ft | 406 kts | 337° |
| 2026-04-25 04:25 | -2.67536 | 117.77969 | 30691 ft | 415 kts | 337° |
| 2026-04-25 04:25 | -2.64962 | 117.76758 | 30153 ft | 414 kts | 336° |
| 2026-04-25 04:26 | -2.62366 | 117.75533 | 29745 ft | 407 kts | 336° |
| 2026-04-25 04:26 | -2.59815 | 117.74330 | 29273 ft | 402 kts | 336° |
| 2026-04-25 04:26 | -2.57295 | 117.73142 | 28804 ft | 398 kts | 336° |
| 2026-04-25 04:26 | -2.54842 | 117.71987 | 28382 ft | 392 kts | 336° |
| 2026-04-25 04:27 | -2.52379 | 117.70826 | 27944 ft | 387 kts | 336° |
| 2026-04-25 04:27 | -2.49946 | 117.69680 | 27483 ft | 384 kts | 336° |
| 2026-04-25 04:27 | -2.47548 | 117.68551 | 27029 ft | 380 kts | 336° |
| 2026-04-25 04:27 | -2.45155 | 117.67424 | 26585 ft | 377 kts | 336° |
| 2026-04-25 04:28 | -2.42783 | 117.66307 | 26120 ft | 375 kts | 336° |
| 2026-04-25 04:28 | -2.40447 | 117.65207 | 25685 ft | 372 kts | 336° |
| 2026-04-25 04:28 | -2.38118 | 117.64111 | 25226 ft | 371 kts | 336° |
| 2026-04-25 04:28 | -2.35783 | 117.63011 | 24768 ft | 369 kts | 336° |
| 2026-04-25 04:29 | -2.33480 | 117.61927 | 24354 ft | 367 kts | 336° |
| 2026-04-25 04:29 | -2.31164 | 117.60836 | 23896 ft | 366 kts | 336° |
| 2026-04-25 04:29 | -2.28862 | 117.59753 | 23447 ft | 365 kts | 336° |
| 2026-04-25 04:29 | -2.26569 | 117.58673 | 22980 ft | 362 kts | 336° |
| 2026-04-25 04:30 | -2.24304 | 117.57589 | 22579 ft | 357 kts | 332° |
| 2026-04-25 04:30 | -2.22424 | 117.56084 | 22452 ft | 346 kts | 310° |
| 2026-04-25 04:30 | -2.21254 | 117.54048 | 22335 ft | 332 kts | 287° |
| 2026-04-25 04:30 | -2.20935 | 117.51819 | 22229 ft | 318 kts | 265° |
| 2026-04-25 04:31 | -2.21408 | 117.49712 | 22019 ft | 308 kts | 244° |
| 2026-04-25 04:31 | -2.22556 | 117.47952 | 21767 ft | 298 kts | 224° |
| 2026-04-25 04:31 | -2.24151 | 117.46737 | 21528 ft | 288 kts | 204° |
| 2026-04-25 04:31 | -2.26011 | 117.46114 | 21280 ft | 278 kts | 186° |
| 2026-04-25 04:32 | -2.27916 | 117.46107 | 21037 ft | 269 kts | 168° |
| 2026-04-25 04:32 | -2.29665 | 117.46660 | 20796 ft | 261 kts | 151° |
| 2026-04-25 04:32 | -2.31155 | 117.47610 | 20559 ft | 254 kts | 144° |
| 2026-04-25 04:32 | -2.32604 | 117.48597 | 20324 ft | 249 kts | 144° |
| 2026-04-25 04:33 | -2.34029 | 117.49551 | 20082 ft | 244 kts | 144° |
| 2026-04-25 04:33 | -2.35430 | 117.50486 | 19803 ft | 241 kts | 144° |
| 2026-04-25 04:33 | -2.36812 | 117.51408 | 19499 ft | 239 kts | 144° |
| 2026-04-25 04:33 | -2.38197 | 117.52332 | 19189 ft | 239 kts | 144° |
| 2026-04-25 04:34 | -2.39574 | 117.53253 | 18889 ft | 237 kts | 144° |
| 2026-04-25 04:34 | -2.40949 | 117.54173 | 18590 ft | 236 kts | 144° |
| 2026-04-25 04:34 | -2.42314 | 117.55086 | 18299 ft | 235 kts | 144° |
| 2026-04-25 04:34 | -2.43674 | 117.55996 | 17989 ft | 234 kts | 144° |
| 2026-04-25 04:35 | -2.45026 | 117.56901 | 17656 ft | 233 kts | 144° |
| 2026-04-25 04:35 | -2.46351 | 117.57788 | 17332 ft | 232 kts | 144° |
| 2026-04-25 04:35 | -2.47689 | 117.58684 | 17001 ft | 231 kts | 144° |
| 2026-04-25 04:35 | -2.49022 | 117.59577 | 16691 ft | 230 kts | 144° |
| 2026-04-25 04:36 | -2.50352 | 117.60468 | 16385 ft | 229 kts | 144° |
| 2026-04-25 04:36 | -2.51678 | 117.61356 | 16072 ft | 228 kts | 144° |
| 2026-04-25 04:36 | -2.52996 | 117.62239 | 15778 ft | 227 kts | 144° |
| 2026-04-25 04:36 | -2.54295 | 117.63109 | 15483 ft | 227 kts | 144° |
| 2026-04-25 04:37 | -2.55609 | 117.63989 | 15194 ft | 226 kts | 144° |
| 2026-04-25 04:37 | -2.56913 | 117.64862 | 14902 ft | 225 kts | 144° |
| 2026-04-25 04:37 | -2.58212 | 117.65732 | 14632 ft | 224 kts | 144° |
| 2026-04-25 04:37 | -2.59490 | 117.66589 | 14356 ft | 224 kts | 144° |
| 2026-04-25 04:38 | -2.60780 | 117.67455 | 14086 ft | 223 kts | 142° |
| 2026-04-25 04:38 | -2.61770 | 117.68602 | 13777 ft | 218 kts | 110° |
| 2026-04-25 04:38 | -2.61952 | 117.70072 | 13435 ft | 214 kts | 77° |
| 2026-04-25 04:38 | -2.61285 | 117.71367 | 13097 ft | 214 kts | 45° |
| 2026-04-25 04:39 | -2.59984 | 117.72083 | 12759 ft | 217 kts | 11° |
| 2026-04-25 04:39 | -2.58464 | 117.71921 | 12589 ft | 237 kts | 336° |
| 2026-04-25 04:39 | -2.57210 | 117.70849 | 13138 ft | 238 kts | 304° |
| 2026-04-25 04:39 | -2.56399 | 117.69366 | 13851 ft | 252 kts | 301° |
| 2026-04-25 04:40 | -2.55187 | 117.68029 | 14271 ft | 262 kts | 328° |
| 2026-04-25 04:40 | -2.53576 | 117.67401 | 14412 ft | 252 kts | 356° |
| 2026-04-25 04:40 | -2.51697 | 117.67367 | 14444 ft | 295 kts | 1° |
| 2026-04-25 04:40 | -2.49503 | 117.67167 | 14426 ft | 332 kts | 351° |
| 2026-04-25 04:41 | -2.47217 | 117.66564 | 14408 ft | 344 kts | 343° |
| 2026-04-25 04:41 | -2.44991 | 117.65705 | 14375 ft | 341 kts | 338° |
| 2026-04-25 04:41 | -2.42839 | 117.64745 | 14307 ft | 331 kts | 337° |
| 2026-04-25 04:41 | -2.40814 | 117.63800 | 14211 ft | 319 kts | 336° |
| 2026-04-25 04:42 | -2.38844 | 117.62877 | 14107 ft | 306 kts | 336° |
| 2026-04-25 04:42 | -2.36955 | 117.61997 | 14013 ft | 293 kts | 337° |
| 2026-04-25 04:42 | -2.35140 | 117.61159 | 13917 ft | 280 kts | 337° |
| 2026-04-25 04:42 | -2.33429 | 117.60374 | 13835 ft | 268 kts | 337° |
| 2026-04-25 04:43 | -2.31759 | 117.59610 | 13684 ft | 259 kts | 338° |
| 2026-04-25 04:43 | -2.30128 | 117.58864 | 13491 ft | 252 kts | 338° |
| 2026-04-25 04:43 | -2.28567 | 117.58152 | 13285 ft | 245 kts | 338° |
| 2026-04-25 04:43 | -2.27029 | 117.57449 | 13113 ft | 239 kts | 338° |
| 2026-04-25 04:44 | -2.25536 | 117.56766 | 12926 ft | 232 kts | 338° |
| 2026-04-25 04:44 | -2.23998 | 117.56067 | 12771 ft | 253 kts | 338° |
| 2026-04-25 04:44 | -2.22415 | 117.55344 | 12588 ft | 247 kts | 338° |
| 2026-04-25 04:44 | -2.20842 | 117.54624 | 12411 ft | 253 kts | 338° |
| 2026-04-25 04:45 | -2.19201 | 117.53876 | 12238 ft | 278 kts | 338° |
| 2026-04-25 04:45 | -2.17286 | 117.53007 | 12221 ft | 324 kts | 337° |
| 2026-04-25 04:45 | -2.15169 | 117.52041 | 12203 ft | 347 kts | 337° |
| 2026-04-25 04:45 | -2.12995 | 117.51041 | 12116 ft | 335 kts | 337° |
| 2026-04-25 04:46 | -2.10917 | 117.50084 | 11987 ft | 321 kts | 337° |
| 2026-04-25 04:46 | -2.08931 | 117.49171 | 11868 ft | 307 kts | 337° |
| 2026-04-25 04:46 | -2.07029 | 117.48299 | 11757 ft | 293 kts | 337° |
| 2026-04-25 04:46 | -2.05218 | 117.47469 | 11656 ft | 281 kts | 338° |
| 2026-04-25 04:47 | -2.03475 | 117.46671 | 11552 ft | 268 kts | 338° |
| 2026-04-25 04:47 | -2.01831 | 117.45919 | 11469 ft | 257 kts | 338° |
| 2026-04-25 04:47 | -2.00239 | 117.45190 | 11384 ft | 245 kts | 338° |
| 2026-04-25 04:47 | -1.98718 | 117.44495 | 11300 ft | 234 kts | 338° |
| 2026-04-25 04:48 | -1.97284 | 117.43839 | 11153 ft | 227 kts | 338° |
| 2026-04-25 04:48 | -1.95841 | 117.43181 | 10884 ft | 227 kts | 338° |
| 2026-04-25 04:48 | -1.94404 | 117.42525 | 10637 ft | 226 kts | 338° |
| 2026-04-25 04:48 | -1.92970 | 117.41870 | 10385 ft | 225 kts | 338° |
| 2026-04-25 04:49 | -1.91566 | 117.41229 | 10143 ft | 224 kts | 338° |
| 2026-04-25 04:49 | -1.90144 | 117.40578 | 9891 ft | 224 kts | 338° |
| 2026-04-25 04:49 | -1.88727 | 117.39930 | 9631 ft | 223 kts | 339° |
| 2026-04-25 04:49 | -1.87330 | 117.39291 | 9395 ft | 222 kts | 339° |
| 2026-04-25 04:50 | -1.85926 | 117.38649 | 9133 ft | 221 kts | 338° |
| 2026-04-25 04:50 | -1.84529 | 117.38010 | 8877 ft | 219 kts | 338° |
| 2026-04-25 04:50 | -1.83144 | 117.37377 | 8632 ft | 218 kts | 338° |
| 2026-04-25 04:50 | -1.81763 | 117.36746 | 8386 ft | 217 kts | 338° |
| 2026-04-25 04:51 | -1.80407 | 117.36125 | 8139 ft | 216 kts | 338° |
| 2026-04-25 04:51 | -1.79038 | 117.35500 | 7909 ft | 216 kts | 338° |
| 2026-04-25 04:51 | -1.77671 | 117.34875 | 7679 ft | 215 kts | 338° |
| 2026-04-25 04:51 | -1.76330 | 117.34261 | 7448 ft | 213 kts | 338° |
| 2026-04-25 04:52 | -1.74812 | 117.33575 | 7386 ft | 270 kts | 338° |
| 2026-04-25 04:52 | -1.72917 | 117.32721 | 7386 ft | 325 kts | 338° |
| 2026-04-25 04:52 | -1.70711 | 117.31716 | 7375 ft | 366 kts | 337° |
| 2026-04-25 04:52 | -1.68343 | 117.30629 | 7350 ft | 375 kts | 337° |
| 2026-04-25 04:53 | -1.65989 | 117.29545 | 7293 ft | 367 kts | 337° |
| 2026-04-25 04:53 | -1.63738 | 117.28507 | 7173 ft | 354 kts | 337° |
| 2026-04-25 04:53 | -1.61548 | 117.27501 | 7037 ft | 336 kts | 337° |
| 2026-04-25 04:53 | -1.59484 | 117.26554 | 7023 ft | 331 kts | 337° |
| 2026-04-25 04:54 | -1.57232 | 117.25531 | 7021 ft | 373 kts | 337° |
| 2026-04-25 04:54 | -1.54888 | 117.24463 | 7018 ft | 365 kts | 337° |
| 2026-04-25 04:54 | -1.52654 | 117.23437 | 6995 ft | 341 kts | 337° |
| 2026-04-25 04:54 | -1.50555 | 117.22472 | 6844 ft | 322 kts | 338° |
| 2026-04-25 04:55 | -1.48590 | 117.21570 | 6705 ft | 306 kts | 338° |
| 2026-04-25 04:55 | -1.46695 | 117.20704 | 6567 ft | 291 kts | 338° |
| 2026-04-25 04:55 | -1.44897 | 117.19881 | 6451 ft | 276 kts | 338° |
| 2026-04-25 04:55 | -1.43191 | 117.19101 | 6348 ft | 263 kts | 338° |
| 2026-04-25 04:56 | -1.41595 | 117.18370 | 6237 ft | 247 kts | 338° |
| 2026-04-25 04:56 | -1.40073 | 117.17673 | 6128 ft | 233 kts | 338° |
| 2026-04-25 04:56 | -1.38640 | 117.17019 | 6028 ft | 220 kts | 338° |
| 2026-04-25 04:56 | -1.37285 | 117.16399 | 5937 ft | 208 kts | 338° |
| 2026-04-25 04:57 | -1.36019 | 117.15820 | 5857 ft | 197 kts | 339° |
| 2026-04-25 04:57 | -1.34795 | 117.15260 | 5715 ft | 191 kts | 339° |
| 2026-04-25 04:57 | -1.33601 | 117.14717 | 5555 ft | 182 kts | 339° |
| 2026-04-25 04:57 | -1.32479 | 117.14204 | 5314 ft | 177 kts | 339° |
| 2026-04-25 04:58 | -1.31375 | 117.13699 | 5070 ft | 172 kts | 339° |
| 2026-04-25 04:58 | -1.30297 | 117.13206 | 4803 ft | 169 kts | 339° |
| 2026-04-25 04:58 | -1.29216 | 117.12715 | 4482 ft | 170 kts | 339° |
| 2026-04-25 04:58 | -1.28150 | 117.12229 | 4175 ft | 171 kts | 339° |
| 2026-04-25 04:59 | -1.27066 | 117.11732 | 3852 ft | 171 kts | 339° |
| 2026-04-25 04:59 | -1.25999 | 117.11244 | 3539 ft | 164 kts | 339° |
| 2026-04-25 04:59 | -1.24808 | 117.10708 | 3255 ft | 197 kts | 339° |
| 2026-04-25 04:59 | -1.23618 | 117.10163 | 2934 ft | 179 kts | 339° |
| 2026-04-25 05:00 | -1.22544 | 117.09664 | 2639 ft | 166 kts | 339° |
| 2026-04-25 05:00 | -1.21545 | 117.09204 | 2505 ft | 155 kts | 339° |
| 2026-04-25 05:00 | -1.20550 | 117.08725 | 2504 ft | 158 kts | 332° |
| 2026-04-25 05:00 | -1.19818 | 117.07906 | 2501 ft | 164 kts | 295° |
| 2026-04-25 05:01 | -1.19694 | 117.06779 | 2500 ft | 168 kts | 264° |
| 2026-04-25 05:01 | -1.19995 | 117.05649 | 2510 ft | 170 kts | 252° |
| 2026-04-25 05:01 | -1.20440 | 117.04563 | 2504 ft | 167 kts | 248° |
| 2026-04-25 05:01 | -1.20906 | 117.03471 | 2504 ft | 172 kts | 249° |
| 2026-04-25 05:02 | -1.21355 | 117.02409 | 2495 ft | 166 kts | 249° |
| 2026-04-25 05:02 | -1.21818 | 117.01314 | 2502 ft | 168 kts | 249° |
| 2026-04-25 05:02 | -1.22274 | 117.00236 | 2479 ft | 173 kts | 248° |
| 2026-04-25 05:02 | -1.22740 | 116.99154 | 2206 ft | 168 kts | 248° |
| 2026-04-25 05:03 | -1.23200 | 116.98106 | 1892 ft | 165 kts | 247° |
| 2026-04-25 05:03 | -1.23659 | 116.97004 | 1750 ft | 181 kts | 249° |
| 2026-04-25 05:03 | -1.24098 | 116.95841 | 1560 ft | 174 kts | 250° |
| 2026-04-25 05:03 | -1.24483 | 116.94749 | 1250 ft | 166 kts | 249° |
| 2026-04-25 05:04 | -1.24942 | 116.93687 | 894 ft | 166 kts | 245° |
| 2026-04-25 05:04 | -1.25489 | 116.92667 | 558 ft | 166 kts | 240° |
| 2026-04-25 05:04 | -1.25847 | 116.91981 | 369 ft | 167 kts | 244° |
| 2026-04-25 05:04 | -1.26350 | 116.90550 | 95 ft | 158 kts | 249° |
| 2026-04-25 05:05 | -1.26635 | 116.89903 | 28 ft | 146 kts | 241° |
| 2026-04-25 05:05 | -1.26972 | 116.89160 | 25 ft | 88 kts | 244° |
| 2026-04-25 05:05 | -1.27137 | 116.88752 | 23 ft | 54 kts | 250° |
| 2026-04-25 05:05 | -1.27183 | 116.88631 | 27 ft | 21 kts | 246° |
| 2026-04-25 05:06 | -1.27220 | 116.88551 | 27 ft | 14 kts | 245° |
| 2026-04-25 05:06 | -1.27260 | 116.88460 | 27 ft | 0 kts | 261° |
| 2026-04-25 05:06 | -1.27262 | 116.88441 | 26 ft | 5 kts | 266° |
| 2026-04-25 05:06 | -1.27239 | 116.88406 | 29 ft | 9 kts | 310° |
| 2026-04-25 05:07 | -1.27197 | 116.88370 | 27 ft | 8 kts | 332° |
| 2026-04-25 05:07 | -1.27131 | 116.88369 | 28 ft | 11 kts | 21° |
| 2026-04-25 05:07 | -1.27078 | 116.88435 | 27 ft | 13 kts | 64° |
| 2026-04-25 05:07 | -1.27036 | 116.88536 | 28 ft | 19 kts | 68° |
| 2026-04-25 05:08 | -1.26981 | 116.88671 | 24 ft | 23 kts | 68° |
| 2026-04-25 05:08 | -1.26918 | 116.88824 | 27 ft | 25 kts | 68° |
| 2026-04-25 05:08 | -1.26851 | 116.88985 | 28 ft | 26 kts | 64° |
| 2026-04-25 05:08 | -1.26776 | 116.89152 | 27 ft | 27 kts | 67° |
| 2026-04-25 05:09 | -1.26700 | 116.89334 | 27 ft | 29 kts | 68° |
| 2026-04-25 05:09 | -1.26620 | 116.89521 | 27 ft | 25 kts | 63° |
| 2026-04-25 05:09 | -1.26552 | 116.89672 | 27 ft | 25 kts | 67° |
| 2026-04-25 05:09 | -1.26485 | 116.89837 | 27 ft | 25 kts | 70° |
| 2026-04-25 05:10 | -1.26434 | 116.89965 | 27 ft | 20 kts | 67° |
| 2026-04-25 05:10 | -1.26386 | 116.90054 | 27 ft | 11 kts | 23° |
| 2026-04-25 05:10 | -1.26339 | 116.90046 | 27 ft | 4 kts | 314° |
| 2026-04-25 05:10 | -1.26320 | 116.90029 | 27 ft | 1 kts | 333° |
| 2026-04-25 05:11 | -1.26296 | 116.90018 | 27 ft | 4 kts | 338° |
| 2026-04-25 05:11 | -1.26270 | 116.90009 | 27 ft | 3 kts | 338° |
| 2026-04-25 05:11 | -1.26256 | 116.90003 | 27 ft | 2 kts | 338° |
| 2026-04-25 05:12 | -1.26251 | 116.90001 | 27 ft | 0 kts | 338° |